This is the latest recevied weather packets stored in our database for station/object NI4CE-10. If no packets are shown the sender has not sent any weather packets the latest 10 day(s).
| Time | Temp. | Humidity | Pressure | Rain* | Wind** | Luminosity | Snow |
|---|---|---|---|---|---|---|---|
| 1777258299 | 18.89° C | 100% | 1015.5 hPa | 0 mm | - | - | - |
| 1777258211 | 18.89° C | 100% | 1015.5 hPa | 0 mm | - | - | - |
| 1777258000 | 18.89° C | 100% | 1015.5 hPa | 0 mm | - | - | - |
| 1777257699 | 18.89° C | 100% | 1015.5 hPa | 0 mm | - | - | - |
| 1777257400 | 18.89° C | 100% | 1015.5 hPa | 0 mm | - | - | - |
| 1777257330 | 21.67° C | 100% | 1014.9 hPa | 0 mm | - | - | - |
| 1777257100 | 19.44° C | 100% | 1015.4 hPa | 0 mm | - | - | - |
| 1777256799 | 19.44° C | 100% | 1015.3 hPa | 0 mm | - | - | - |
| 1777256500 | 20° C | 100% | 1015.2 hPa | 0 mm | - | - | - |
| 1777256200 | 20° C | 100% | 1015.2 hPa | 0 mm | - | - | - |
| 1777255900 | 20° C | 100% | 1015.1 hPa | 0 mm | - | - | - |
| 1777255600 | 20.56° C | 100% | 1015.1 hPa | 0 mm | - | - | - |
| 1777255300 | 20.56° C | 100% | 1015 hPa | 0 mm | - | - | - |
| 1777255000 | 20.56° C | 100% | 1014.9 hPa | 0 mm | - | - | - |
| 1777254700 | 21.11° C | 100% | 1014.9 hPa | 0 mm | - | - | - |
| 1777254400 | 21.11° C | 100% | 1014.8 hPa | 0 mm | - | - | - |
| 1777254100 | 21.11° C | 100% | 1014.8 hPa | 0 mm | - | - | - |
| 1777253800 | 21.11° C | 100% | 1014.8 hPa | 0 mm | - | - | - |
| 1777253500 | 21.67° C | 100% | 1014.9 hPa | 0 mm | - | - | - |
| 1777253200 | 21.67° C | 100% | 1014.8 hPa | 0 mm | - | - | - |
| 1777252900 | 21.67° C | 100% | 1014.8 hPa | 0 mm | - | - | - |
| 1777252600 | 21.67° C | 100% | 1014.8 hPa | 0 mm | - | - | - |
| 1777252300 | 22.22° C | 100% | 1014.8 hPa | 0 mm | - | - | - |
| 1777252000 | 22.22° C | 100% | 1014.7 hPa | 0 mm | - | - | - |
| 1777251700 | 22.22° C | 100% | 1014.7 hPa | 0 mm | - | - | - |
* Rain latest hour (hover to see other rain measurements)
** Current wind speed in m/s (hover to see current wind gust speed)